createdAt,value
2023-04-22T00:01:44.166Z,78.95
2023-04-22T00:04:47.433Z,79.29
2023-04-22T00:07:50.303Z,79.86
2023-04-22T00:10:53.119Z,80.05
2023-04-22T00:13:56.035Z,80.08
2023-04-22T00:16:58.909Z,80.04
2023-04-22T00:20:01.574Z,80.10
2023-04-22T00:23:04.470Z,80.21
2023-04-22T00:26:07.031Z,80.07
2023-04-22T00:29:10.306Z,79.90
2023-04-22T00:32:13.035Z,80.28
2023-04-22T00:35:16.020Z,80.16
2023-04-22T00:38:18.657Z,80.40
2023-04-22T00:41:21.624Z,79.73
2023-04-22T00:44:24.957Z,79.93
2023-04-22T00:47:28.151Z,78.90
2023-04-22T00:50:30.920Z,78.27
2023-04-22T00:53:33.998Z,77.82
2023-04-22T00:56:38.553Z,77.56
2023-04-22T00:59:42.759Z,77.36
2023-04-22T01:02:45.520Z,76.55
2023-04-22T01:05:48.977Z,75.89
2023-04-22T01:08:51.598Z,75.35
2023-04-22T01:11:54.859Z,74.83
2023-04-22T01:14:57.502Z,75.03
2023-04-22T01:18:01.845Z,75.96
2023-04-22T01:21:05.677Z,77.00
2023-04-22T01:24:09.028Z,77.65
2023-04-22T01:27:12.276Z,78.66
2023-04-22T01:30:15.968Z,79.15
2023-04-22T01:33:18.841Z,77.93
2023-04-22T01:36:21.769Z,78.16
2023-04-22T01:39:24.444Z,78.40
2023-04-22T01:42:27.593Z,78.33
2023-04-22T01:45:30.277Z,78.89
2023-04-22T01:48:33.262Z,78.78
2023-04-22T01:51:35.880Z,79.17
2023-04-22T01:54:39.101Z,78.09
2023-04-22T01:57:41.825Z,77.97
2023-04-22T02:00:45.194Z,77.41
2023-04-22T02:03:48.211Z,77.21
2023-04-22T02:06:50.780Z,77.84
2023-04-22T02:09:54.196Z,77.72
2023-04-22T02:12:57.140Z,77.79
2023-04-22T02:16:00.188Z,78.05
2023-04-22T02:19:03.390Z,77.82
2023-04-22T02:22:07.015Z,77.67
2023-04-22T02:25:12.308Z,77.73
2023-04-22T02:28:14.941Z,77.02
2023-04-22T02:31:18.027Z,76.59
2023-04-22T02:34:20.909Z,76.40
2023-04-22T02:37:23.919Z,76.28
2023-04-22T02:40:26.802Z,76.79
2023-04-22T02:43:29.927Z,76.79
2023-04-22T02:46:32.525Z,77.16
2023-04-22T02:49:36.075Z,77.63
2023-04-22T02:52:39.375Z,77.68
2023-04-22T02:55:42.589Z,77.38
2023-04-22T02:58:45.442Z,76.87
2023-04-22T03:01:48.593Z,77.24
2023-04-22T03:04:54.331Z,77.76
2023-04-22T03:07:57.600Z,78.66
2023-04-22T03:11:00.135Z,77.84
2023-04-22T03:14:03.081Z,77.41
2023-04-22T03:17:05.718Z,78.15
2023-04-22T03:20:09.148Z,77.05
2023-04-22T03:23:13.082Z,76.44
2023-04-22T03:26:16.194Z,75.59
2023-04-22T03:29:18.963Z,75.07
2023-04-22T03:32:22.066Z,74.45
2023-04-22T03:35:26.455Z,74.58
2023-04-22T03:38:29.693Z,73.93
2023-04-22T03:41:32.345Z,74.21
2023-04-22T03:44:35.629Z,75.16
2023-04-22T03:47:39.224Z,75.04
2023-04-22T03:50:43.107Z,76.18
2023-04-22T03:53:45.961Z,76.14
2023-04-22T03:56:51.255Z,76.41
2023-04-22T03:59:55.263Z,76.60
2023-04-22T04:02:58.259Z,76.61
2023-04-22T04:06:01.789Z,76.72
2023-04-22T04:09:05.625Z,76.18
2023-04-22T04:12:08.789Z,76.06
2023-04-22T04:15:14.030Z,76.51
2023-04-22T04:18:17.569Z,77.19
2023-04-22T04:21:22.096Z,77.10
2023-04-22T04:24:25.922Z,76.94
2023-04-22T04:27:29.635Z,77.43
2023-04-22T04:30:33.643Z,77.57
2023-04-22T04:33:37.323Z,77.48
2023-04-22T04:36:40.607Z,78.27
2023-04-22T04:39:43.621Z,77.51
2023-04-22T04:42:47.123Z,77.50
2023-04-22T04:45:50.463Z,77.30
2023-04-22T04:48:54.086Z,77.10
2023-04-22T04:51:57.954Z,77.80
2023-04-22T04:55:01.621Z,78.41
2023-04-22T04:58:05.736Z,78.51
2023-04-22T05:01:08.761Z,80.10
2023-04-22T05:04:11.703Z,81.29
2023-04-22T05:07:15.441Z,80.65
2023-04-22T05:10:18.269Z,79.40
2023-04-22T05:13:22.486Z,78.64
2023-04-22T05:16:25.392Z,77.56
2023-04-22T05:19:28.401Z,77.12
2023-04-22T05:22:31.778Z,77.37
2023-04-22T05:25:34.853Z,77.47
2023-04-22T05:28:38.545Z,77.33
2023-04-22T05:31:41.775Z,77.55
2023-04-22T05:34:44.834Z,76.89
2023-04-22T05:37:47.879Z,76.51
2023-04-22T05:40:50.884Z,75.31
2023-04-22T05:43:54.892Z,74.56
2023-04-22T05:46:57.604Z,74.30
2023-04-22T05:50:01.106Z,72.99
2023-04-22T05:53:04.572Z,72.06
2023-04-22T05:56:07.430Z,71.86
2023-04-22T05:59:10.354Z,72.16
2023-04-22T06:02:14.143Z,70.96
2023-04-22T06:05:17.265Z,70.49
2023-04-22T06:08:20.365Z,70.81
2023-04-22T06:11:26.574Z,71.36
2023-04-22T06:14:29.197Z,69.83
2023-04-22T06:17:32.237Z,66.65
2023-04-22T06:20:35.985Z,67.04
2023-04-22T06:23:39.060Z,66.37
2023-04-22T06:26:42.008Z,65.56
2023-04-22T06:29:45.537Z,63.40
2023-04-22T06:32:48.279Z,63.99
2023-04-22T06:35:51.323Z,61.97
2023-04-22T06:38:54.505Z,61.62
2023-04-22T06:41:57.528Z,62.66
2023-04-22T06:45:01.143Z,57.19
2023-04-22T06:48:04.153Z,58.17
2023-04-22T06:51:09.894Z,57.55
2023-04-22T06:54:13.119Z,56.26
2023-04-22T06:57:15.656Z,56.00
2023-04-22T07:00:18.760Z,56.95
2023-04-22T07:03:22.692Z,54.90
2023-04-22T07:06:30.716Z,53.77
2023-04-22T07:09:34.002Z,50.12
2023-04-22T07:12:37.320Z,52.06
2023-04-22T07:15:39.880Z,50.94
2023-04-22T07:18:42.706Z,49.51
2023-04-22T07:21:45.636Z,48.61
2023-04-22T07:24:48.715Z,48.96
2023-04-22T07:27:51.321Z,46.47
2023-04-22T07:30:54.608Z,45.38
2023-04-22T07:33:57.146Z,46.84
2023-04-22T07:37:00.110Z,45.06
2023-04-22T07:40:02.820Z,43.67
2023-04-22T07:43:06.064Z,43.05
2023-04-22T07:46:08.690Z,43.94
2023-04-22T07:49:14.241Z,40.54
2023-04-22T07:52:16.988Z,42.18
2023-04-22T07:55:19.774Z,42.29
2023-04-22T07:58:22.376Z,43.75
2023-04-22T08:01:25.385Z,41.84
2023-04-22T08:04:28.650Z,42.03
2023-04-22T08:07:33.474Z,41.48
2023-04-22T08:10:36.757Z,40.53
2023-04-22T08:13:39.356Z,41.15
2023-04-22T08:16:42.244Z,37.99
2023-04-22T08:19:45.334Z,37.15
2023-04-22T08:22:50.540Z,37.79
2023-04-22T08:25:53.181Z,38.50
2023-04-22T08:28:56.110Z,36.88
2023-04-22T08:31:58.625Z,37.67
2023-04-22T08:35:04.976Z,36.37
2023-04-22T08:38:09.134Z,36.15
2023-04-22T08:41:12.643Z,36.56
2023-04-22T08:44:15.438Z,37.27
2023-04-22T08:47:19.426Z,35.06
2023-04-22T08:50:22.537Z,34.75
2023-04-22T08:53:25.535Z,37.41
2023-04-22T08:56:29.166Z,35.00
2023-04-22T08:59:32.454Z,33.96
2023-04-22T09:02:37.246Z,33.20
2023-04-22T09:05:41.182Z,34.05
2023-04-22T09:08:43.986Z,34.52
2023-04-22T09:11:46.851Z,33.01
2023-04-22T09:14:49.564Z,32.47
2023-04-22T09:17:52.564Z,31.80
2023-04-22T09:20:57.054Z,32.26
2023-04-22T09:24:02.432Z,32.07
2023-04-22T09:27:05.061Z,31.86
2023-04-22T09:30:09.353Z,32.40
2023-04-22T09:33:13.835Z,32.09
2023-04-22T09:36:16.803Z,30.72
2023-04-22T09:39:19.457Z,32.02
2023-04-22T09:42:22.562Z,31.61
2023-04-22T09:45:27.559Z,30.55
2023-04-22T09:48:30.610Z,31.68
2023-04-22T09:51:34.516Z,30.39
2023-04-22T09:54:37.866Z,31.47
2023-04-22T09:57:40.572Z,31.24
2023-04-22T10:00:49.555Z,32.62
2023-04-22T10:03:52.674Z,30.48
2023-04-22T10:06:55.633Z,29.00
2023-04-22T10:09:58.530Z,29.73
2023-04-22T10:13:02.408Z,33.38
2023-04-22T10:16:06.967Z,29.87
2023-04-22T10:19:13.959Z,30.21
2023-04-22T10:22:17.364Z,31.99
2023-04-22T10:25:26.849Z,29.60
2023-04-22T10:28:30.795Z,33.19
2023-04-22T10:31:33.539Z,32.54
2023-04-22T10:34:37.289Z,30.37
2023-04-22T10:37:44.648Z,27.58
2023-04-22T10:41:00.412Z,27.99
2023-04-22T10:44:07.661Z,29.88
2023-04-22T10:47:10.628Z,29.14
2023-04-22T10:50:24.844Z,29.18
2023-04-22T10:53:37.747Z,29.54
2023-04-22T10:57:05.170Z,30.01
2023-04-22T11:00:52.213Z,28.81
2023-04-22T11:04:20.821Z,29.83
2023-04-22T11:07:27.280Z,30.11
2023-04-22T11:10:43.001Z,30.31
2023-04-22T11:13:51.028Z,31.25
2023-04-22T11:16:54.240Z,32.99
2023-04-22T11:20:01.016Z,31.61
2023-04-22T11:23:04.366Z,29.82
2023-04-22T11:26:07.532Z,30.09
2023-04-22T11:29:10.353Z,29.99
2023-04-22T11:32:13.237Z,29.74
2023-04-22T11:35:27.013Z,31.63
2023-04-22T11:38:30.206Z,32.63
2023-04-22T11:41:32.747Z,32.68
2023-04-22T11:44:35.655Z,30.51
2023-04-22T11:47:38.162Z,30.05
2023-04-22T11:50:44.167Z,29.87
2023-04-22T11:53:51.504Z,30.96
2023-04-22T11:56:54.632Z,30.89
2023-04-22T11:59:59.337Z,30.12
2023-04-22T12:03:08.150Z,30.65
2023-04-22T12:06:11.436Z,29.71
2023-04-22T12:09:14.146Z,31.05
2023-04-22T12:12:26.124Z,32.62
2023-04-22T12:15:37.890Z,30.04
2023-04-22T12:18:48.209Z,31.23
2023-04-22T12:21:50.721Z,32.24
2023-04-22T12:24:54.161Z,33.55
2023-04-22T12:27:57.630Z,30.94
2023-04-22T12:31:01.539Z,33.13
2023-04-22T12:34:04.326Z,31.45
2023-04-22T12:37:07.233Z,32.01
2023-04-22T12:40:10.473Z,31.10
2023-04-22T12:43:13.486Z,31.53
2023-04-22T12:46:16.763Z,30.91
2023-04-22T12:49:19.897Z,31.43
2023-04-22T12:52:22.557Z,35.11
2023-04-22T12:55:26.123Z,34.79
2023-04-22T12:58:29.216Z,33.95
2023-04-22T13:01:33.838Z,31.83
2023-04-22T13:04:37.985Z,33.44
2023-04-22T13:07:45.442Z,34.69
2023-04-22T13:10:49.582Z,34.28
2023-04-22T13:13:52.667Z,35.58
2023-04-22T13:16:55.371Z,34.36
2023-04-22T13:19:59.132Z,36.53
2023-04-22T13:23:02.409Z,32.25
2023-04-22T13:26:05.850Z,31.91
2023-04-22T13:29:12.531Z,33.15
2023-04-22T13:32:15.474Z,33.86
2023-04-22T13:35:18.610Z,32.56
2023-04-22T13:38:21.565Z,32.15
2023-04-22T13:41:24.148Z,31.57
2023-04-22T13:44:27.246Z,32.42
2023-04-22T13:47:29.869Z,32.65
2023-04-22T13:50:34.088Z,31.86
2023-04-22T13:53:36.719Z,30.83
2023-04-22T13:56:39.774Z,30.38
2023-04-22T13:59:42.584Z,29.22
2023-04-22T14:02:45.912Z,29.72
2023-04-22T14:05:48.946Z,29.84
2023-04-22T14:08:51.653Z,29.76
2023-04-22T14:11:54.654Z,30.02
2023-04-22T14:14:57.292Z,30.74
2023-04-22T14:18:00.310Z,30.51
2023-04-22T14:21:06.034Z,31.23
2023-04-22T14:24:09.362Z,30.80
2023-04-22T14:27:12.525Z,31.41
2023-04-22T14:30:16.593Z,32.11
2023-04-22T14:33:20.123Z,30.96
2023-04-22T14:36:22.984Z,31.77
2023-04-22T14:39:25.849Z,31.59
2023-04-22T14:42:28.787Z,30.90
2023-04-22T14:45:32.107Z,33.00
2023-04-22T14:48:35.635Z,32.34
2023-04-22T14:51:38.294Z,32.95
2023-04-22T14:54:41.176Z,32.53
2023-04-22T14:57:43.915Z,33.49
2023-04-22T15:00:48.566Z,35.33
2023-04-22T15:03:52.193Z,35.02
2023-04-22T15:06:57.664Z,33.54
2023-04-22T15:10:00.839Z,33.12
2023-04-22T15:13:04.289Z,33.29
2023-04-22T15:16:06.893Z,32.73
2023-04-22T15:19:09.998Z,32.46
2023-04-22T15:22:13.073Z,32.98
2023-04-22T15:25:18.080Z,32.79
2023-04-22T15:28:21.243Z,32.74
2023-04-22T15:31:24.068Z,32.40
2023-04-22T15:34:26.662Z,33.79
2023-04-22T15:37:29.604Z,34.27
2023-04-22T15:40:32.942Z,34.61
2023-04-22T15:43:35.838Z,33.85
2023-04-22T15:46:38.741Z,34.95
2023-04-22T15:49:42.006Z,36.30
2023-04-22T15:52:45.061Z,35.37
2023-04-22T15:55:48.767Z,36.70
2023-04-22T15:59:00.502Z,35.94
2023-04-22T16:02:03.475Z,34.19
2023-04-22T16:05:06.751Z,35.75
2023-04-22T16:08:10.341Z,35.72
2023-04-22T16:11:15.029Z,35.85
2023-04-22T16:14:17.606Z,34.61
2023-04-22T16:17:21.042Z,34.29
2023-04-22T16:20:24.313Z,34.89
2023-04-22T16:23:28.121Z,36.40
2023-04-22T16:26:31.050Z,35.67
2023-04-22T16:29:34.004Z,35.78
2023-04-22T16:32:37.098Z,36.42
2023-04-22T16:35:40.837Z,36.40
2023-04-22T16:38:43.553Z,37.26
2023-04-22T16:41:46.669Z,37.42
2023-04-22T16:44:49.621Z,37.70
2023-04-22T16:47:52.611Z,38.02
2023-04-22T16:50:55.328Z,38.68
2023-04-22T16:53:58.396Z,38.48
2023-04-22T16:57:01.600Z,39.03
2023-04-22T17:00:07.464Z,39.17
2023-04-22T17:03:11.973Z,39.55
2023-04-22T17:06:15.016Z,40.13
2023-04-22T17:09:17.627Z,42.88
2023-04-22T17:12:20.805Z,44.81
2023-04-22T17:15:23.534Z,46.80
2023-04-22T17:18:26.743Z,47.76
2023-04-22T17:21:29.700Z,47.50
2023-04-22T17:24:32.657Z,47.63
2023-04-22T17:27:35.360Z,46.59
2023-04-22T17:30:39.898Z,43.55
2023-04-22T17:33:42.690Z,44.09
2023-04-22T17:36:45.706Z,45.60
2023-04-22T17:39:48.667Z,45.41
2023-04-22T17:42:52.075Z,43.95
2023-04-22T17:45:54.977Z,43.55
2023-04-22T17:48:57.988Z,43.37
2023-04-22T17:52:00.715Z,42.54
2023-04-22T17:55:04.748Z,42.08
2023-04-22T17:58:07.951Z,41.68
2023-04-22T18:01:10.944Z,41.72
2023-04-22T18:04:14.134Z,41.76
2023-04-22T18:07:16.950Z,42.24
2023-04-22T18:10:20.134Z,42.58
2023-04-22T18:13:22.800Z,43.88
2023-04-22T18:16:25.824Z,42.30
2023-04-22T18:19:28.756Z,42.25
2023-04-22T18:22:31.790Z,42.36
2023-04-22T18:25:34.412Z,42.42
2023-04-22T18:28:43.399Z,42.39
2023-04-22T18:31:46.193Z,43.11
2023-04-22T18:34:49.171Z,42.94
2023-04-22T18:37:51.923Z,43.08
2023-04-22T18:40:55.465Z,43.21
2023-04-22T18:43:58.064Z,43.79
2023-04-22T18:47:01.230Z,43.63
2023-04-22T18:50:04.496Z,43.89
2023-04-22T18:53:07.716Z,44.05
2023-04-22T18:56:10.782Z,44.11
2023-04-22T18:59:13.957Z,43.97
2023-04-22T19:02:16.960Z,44.30
2023-04-22T19:05:21.356Z,44.14
2023-04-22T19:08:24.152Z,44.37
2023-04-22T19:11:27.522Z,44.71
2023-04-22T19:14:30.632Z,44.55
2023-04-22T19:17:34.872Z,45.35
2023-04-22T19:20:38.635Z,46.34
2023-04-22T19:23:42.193Z,47.93
2023-04-22T19:26:45.549Z,48.78
2023-04-22T19:29:53.420Z,49.03
2023-04-22T19:32:56.549Z,48.67
2023-04-22T19:35:59.654Z,48.34
2023-04-22T19:39:02.249Z,48.23
2023-04-22T19:42:05.412Z,48.51
2023-04-22T19:45:10.646Z,48.24
2023-04-22T19:48:13.988Z,48.76
2023-04-22T19:51:16.961Z,48.89
2023-04-22T19:54:21.747Z,49.00
2023-04-22T19:57:24.970Z,49.46
2023-04-22T20:00:35.466Z,49.33
2023-04-22T20:03:39.047Z,49.31
2023-04-22T20:06:44.866Z,49.65
2023-04-22T20:09:49.033Z,49.80
2023-04-22T20:12:54.091Z,50.11
2023-04-22T20:15:59.536Z,50.18
2023-04-22T20:19:02.828Z,50.23
2023-04-22T20:22:08.780Z,50.36
2023-04-22T20:25:13.898Z,49.73
2023-04-22T20:28:17.282Z,49.35
2023-04-22T20:31:20.751Z,49.40
2023-04-22T20:34:24.759Z,49.42
2023-04-22T20:37:28.644Z,49.69
2023-04-22T20:40:33.645Z,49.53
2023-04-22T20:43:36.620Z,49.95
2023-04-22T20:46:39.699Z,50.09
2023-04-22T20:49:43.426Z,50.06
2023-04-22T20:52:47.689Z,50.34
2023-04-22T20:55:50.983Z,50.46
2023-04-22T20:58:53.815Z,50.37
2023-04-22T21:01:56.874Z,50.14
2023-04-22T21:05:00.593Z,50.02
2023-04-22T21:08:05.962Z,50.38
2023-04-22T21:11:09.150Z,50.12
2023-04-22T21:14:11.905Z,50.12
2023-04-22T21:17:25.254Z,50.10
2023-04-22T21:20:28.834Z,49.98
2023-04-22T21:23:32.465Z,50.11
2023-04-22T21:26:36.208Z,50.29
2023-04-22T21:29:39.528Z,50.16
2023-04-22T21:32:42.375Z,50.19
2023-04-22T21:35:45.469Z,50.10
2023-04-22T21:38:50.122Z,50.26
2023-04-22T21:41:53.155Z,50.33
2023-04-22T21:44:56.340Z,50.33
2023-04-22T21:47:59.547Z,50.42
2023-04-22T21:51:02.323Z,50.46
2023-04-22T21:54:05.421Z,50.37
2023-04-22T21:57:08.130Z,50.35
2023-04-22T22:00:18.659Z,50.67
2023-04-22T22:03:21.868Z,50.77
2023-04-22T22:06:25.461Z,50.64
2023-04-22T22:09:28.496Z,50.79
2023-04-22T22:12:31.357Z,51.10
2023-04-22T22:15:34.597Z,51.07
2023-04-22T22:18:38.008Z,51.17
2023-04-22T22:21:41.466Z,51.70
2023-04-22T22:24:44.412Z,51.64
2023-04-22T22:27:49.117Z,51.60
2023-04-22T22:30:52.154Z,51.36
2023-04-22T22:33:55.493Z,51.45
2023-04-22T22:36:58.155Z,51.49
2023-04-22T22:40:01.866Z,51.28
2023-04-22T22:43:04.797Z,51.52
2023-04-22T22:46:07.702Z,51.42
2023-04-22T22:49:10.876Z,51.38
2023-04-22T22:52:14.089Z,51.85
2023-04-22T22:55:16.799Z,52.81
2023-04-22T22:58:19.623Z,53.20
2023-04-22T23:01:22.486Z,52.28
2023-04-22T23:04:26.164Z,52.38
2023-04-22T23:07:29.149Z,54.67
2023-04-22T23:10:32.234Z,56.71
2023-04-22T23:13:34.940Z,57.68
2023-04-22T23:16:38.499Z,58.67
2023-04-22T23:19:41.545Z,58.92
2023-04-22T23:22:45.479Z,59.87
2023-04-22T23:25:48.522Z,59.91
2023-04-22T23:28:52.585Z,57.28
2023-04-22T23:31:55.985Z,58.20
2023-04-22T23:35:00.674Z,56.14
2023-04-22T23:38:04.440Z,56.58
2023-04-22T23:41:07.753Z,56.76
2023-04-22T23:44:11.144Z,58.51
2023-04-22T23:47:14.665Z,58.22
2023-04-22T23:50:19.205Z,58.66
2023-04-22T23:53:22.273Z,57.46
2023-04-22T23:56:26.509Z,56.29
2023-04-22T23:59:29.730Z,58.16
